Terminal Aerodrome Forecast
Issued by NWS

Home | Current Version | Previous Version | Text Only | Print | Product List | Glossary On
Versions: 1 2 3 4 5 6 7 8 9 10 11 12 13 14 15
144
FTUS46 KLOX 301920 AAA
TAFWJF
TAF AMD
KWJF 301920Z 3019/0118 28018G24KT P6SM SCT060 BKN100
     FM302100 36015KT P6SM VCTS SCT060CB BKN120
     FM010300 28018G25KT P6SM SCT060 SCT120
     FM010500 27010KT P6SM SCT120 BKN250
     FM011100 VRB03KT P6SM SCT250=

USA.gov is the U.S. government's official web portal to all federal, state and local government web resources and services.